createdAt,value
2017-12-11T00:00:09.626Z,973.96
2017-12-11T00:01:09.602Z,974.06
2017-12-11T00:02:09.603Z,974.11
2017-12-11T00:03:09.553Z,973.99
2017-12-11T00:04:09.519Z,974.17
2017-12-11T00:05:09.491Z,974.14
2017-12-11T00:06:09.460Z,974.29
2017-12-11T00:07:09.435Z,974.40
2017-12-11T00:08:09.419Z,974.49
2017-12-11T00:09:09.391Z,974.51
2017-12-11T00:10:09.359Z,974.61
2017-12-11T00:11:09.332Z,974.64
2017-12-11T00:12:09.305Z,974.58
2017-12-11T00:13:09.288Z,974.73
2017-12-11T00:14:09.251Z,974.77
2017-12-11T00:15:09.229Z,974.82
2017-12-11T00:16:09.204Z,974.89
2017-12-11T00:17:09.194Z,974.85
2017-12-11T00:18:09.148Z,974.92
2017-12-11T00:19:09.123Z,974.92
2017-12-11T00:20:09.097Z,975.00
2017-12-11T00:21:09.074Z,974.98
2017-12-11T00:22:09.047Z,975.10
2017-12-11T00:23:09.020Z,975.10
2017-12-11T00:24:08.993Z,975.15
2017-12-11T00:25:08.971Z,975.24
2017-12-11T00:26:08.939Z,975.27
2017-12-11T00:27:08.915Z,975.35
2017-12-11T00:28:08.905Z,975.27
2017-12-11T00:29:08.867Z,975.35
2017-12-11T00:30:08.837Z,975.42
2017-12-11T00:31:08.941Z,975.43
2017-12-11T00:32:08.786Z,975.50
2017-12-11T00:33:08.759Z,975.58
2017-12-11T00:34:08.748Z,975.68
2017-12-11T00:35:08.707Z,975.72
2017-12-11T00:36:08.688Z,975.72
2017-12-11T00:37:08.666Z,975.70
2017-12-11T00:38:08.630Z,975.64
2017-12-11T00:39:08.607Z,975.76
2017-12-11T00:40:08.585Z,975.78
2017-12-11T00:41:08.565Z,975.77
2017-12-11T00:42:08.524Z,975.85
2017-12-11T00:43:08.504Z,975.87
2017-12-11T00:44:08.484Z,975.85
2017-12-11T00:45:08.449Z,975.85
2017-12-11T00:46:08.432Z,975.84
2017-12-11T00:47:08.396Z,975.90
2017-12-11T00:48:08.383Z,975.92
2017-12-11T00:49:08.352Z,975.92
2017-12-11T00:50:08.330Z,975.90
2017-12-11T00:51:08.296Z,975.94
2017-12-11T00:52:08.270Z,975.92
2017-12-11T00:53:08.243Z,975.99
2017-12-11T00:54:08.216Z,975.99
2017-12-11T00:55:08.249Z,975.98
2017-12-11T00:56:08.165Z,976.01
2017-12-11T00:57:08.152Z,975.97
2017-12-11T00:58:08.123Z,976.14
2017-12-11T00:59:08.179Z,976.17
2017-12-11T01:00:08.065Z,976.24
2017-12-11T01:01:08.043Z,976.26
2017-12-11T01:02:08.093Z,976.34
2017-12-11T01:03:07.987Z,976.38
2017-12-11T01:04:07.990Z,976.43
2017-12-11T01:05:07.936Z,976.44
2017-12-11T01:06:07.913Z,976.43
2017-12-11T01:07:07.886Z,976.51
2017-12-11T01:08:07.861Z,976.47
2017-12-11T01:09:07.831Z,976.58
2017-12-11T01:10:07.906Z,976.56
2017-12-11T01:11:07.791Z,976.58
2017-12-11T01:12:07.755Z,976.62
2017-12-11T01:13:07.759Z,976.65
2017-12-11T01:14:07.710Z,976.76
2017-12-11T01:15:07.679Z,976.74
2017-12-11T01:16:07.655Z,976.86
2017-12-11T01:17:07.630Z,976.82
2017-12-11T01:18:07.602Z,976.85
2017-12-11T01:19:07.581Z,976.85
2017-12-11T01:20:07.555Z,976.96
2017-12-11T01:21:07.529Z,977.01
2017-12-11T01:22:07.507Z,977.13
2017-12-11T01:23:07.474Z,977.13
2017-12-11T01:24:07.467Z,977.21
2017-12-11T01:25:07.425Z,977.26
2017-12-11T01:26:07.398Z,977.21
2017-12-11T01:27:07.372Z,977.36
2017-12-11T01:28:07.354Z,977.40
2017-12-11T01:29:07.321Z,977.43
2017-12-11T01:30:07.304Z,977.51
2017-12-11T01:31:07.270Z,977.50
2017-12-11T01:32:07.243Z,977.58
2017-12-11T01:33:07.227Z,977.59
2017-12-11T01:34:07.194Z,977.61
2017-12-11T01:35:07.277Z,977.65
2017-12-11T01:36:07.143Z,977.72
2017-12-11T01:37:07.118Z,977.69
2017-12-11T01:38:07.105Z,977.73
2017-12-11T01:39:07.075Z,977.70
2017-12-11T01:40:07.038Z,977.70
2017-12-11T01:41:07.017Z,977.77
2017-12-11T01:42:07.001Z,977.74
2017-12-11T01:43:06.971Z,977.74
2017-12-11T01:44:06.947Z,977.78
2017-12-11T01:45:06.916Z,977.82
2017-12-11T01:46:06.891Z,977.78
2017-12-11T01:47:06.860Z,977.83
2017-12-11T01:48:06.835Z,977.85
2017-12-11T01:49:06.810Z,977.87
2017-12-11T01:50:06.788Z,977.86
2017-12-11T01:51:06.760Z,977.88
2017-12-11T01:52:06.736Z,977.94
2017-12-11T01:53:06.710Z,977.91
2017-12-11T01:54:06.692Z,977.94
2017-12-11T01:55:06.663Z,977.95
2017-12-11T01:56:06.632Z,977.98
2017-12-11T01:57:06.605Z,977.94
2017-12-11T01:58:06.583Z,978.01
2017-12-11T01:59:06.556Z,977.99
2017-12-11T02:00:06.540Z,978.02
2017-12-11T02:01:06.504Z,977.97
2017-12-11T02:02:06.482Z,977.98
2017-12-11T02:03:06.459Z,977.96
2017-12-11T02:04:06.432Z,977.88
2017-12-11T02:05:06.405Z,977.90
2017-12-11T02:06:06.382Z,977.87
2017-12-11T02:07:06.356Z,977.84
2017-12-11T02:08:06.333Z,977.85
2017-12-11T02:09:06.312Z,977.79
2017-12-11T02:10:06.285Z,977.75
2017-12-11T02:11:06.278Z,977.72
2017-12-11T02:12:06.242Z,977.72
2017-12-11T02:13:06.204Z,977.71
2017-12-11T02:14:06.196Z,977.71
2017-12-11T02:15:06.154Z,977.72
2017-12-11T02:16:06.132Z,977.69
2017-12-11T02:17:06.133Z,977.72
2017-12-11T02:18:06.081Z,977.76
2017-12-11T02:19:06.054Z,977.79
2017-12-11T02:20:06.029Z,977.81
2017-12-11T02:21:06.016Z,977.83
2017-12-11T02:22:05.981Z,977.89
2017-12-11T02:23:06.046Z,977.85
2017-12-11T02:24:05.930Z,977.87
2017-12-11T02:25:05.905Z,977.82
2017-12-11T02:26:05.881Z,977.78
2017-12-11T02:27:05.852Z,977.77
2017-12-11T02:28:05.828Z,977.76
2017-12-11T02:29:05.805Z,977.74
2017-12-11T02:30:05.780Z,977.67
2017-12-11T02:31:05.755Z,977.65
2017-12-11T02:32:05.728Z,977.66
2017-12-11T02:33:05.718Z,977.65
2017-12-11T02:34:05.679Z,977.71
2017-12-11T02:35:05.653Z,977.76
2017-12-11T02:36:05.639Z,977.75
2017-12-11T02:37:05.610Z,977.81
2017-12-11T02:38:05.577Z,977.80
2017-12-11T02:39:05.563Z,977.89
2017-12-11T02:40:05.537Z,977.96
2017-12-11T02:41:05.501Z,977.96
2017-12-11T02:42:05.477Z,978.03
2017-12-11T02:43:05.457Z,978.09
2017-12-11T02:44:05.429Z,978.16
2017-12-11T02:45:05.419Z,978.19
2017-12-11T02:46:05.380Z,978.27
2017-12-11T02:47:05.378Z,978.18
2017-12-11T02:48:05.337Z,978.16
2017-12-11T02:49:05.303Z,978.15
2017-12-11T02:50:05.357Z,978.13
2017-12-11T02:51:05.255Z,978.24
2017-12-11T02:52:05.228Z,978.24
2017-12-11T02:53:05.225Z,978.30
2017-12-11T02:54:05.178Z,978.40
2017-12-11T02:55:05.156Z,978.47
2017-12-11T02:56:05.129Z,978.47
2017-12-11T02:57:05.104Z,978.52
2017-12-11T02:58:05.077Z,978.56
2017-12-11T02:59:05.056Z,978.64
2017-12-11T03:00:05.035Z,978.70
2017-12-11T03:01:05.004Z,978.70
2017-12-11T03:02:04.986Z,978.79
2017-12-11T03:03:04.954Z,978.81
2017-12-11T03:04:04.929Z,978.88
2017-12-11T03:05:04.905Z,978.88
2017-12-11T03:06:04.877Z,978.88
2017-12-11T03:07:04.853Z,978.97
2017-12-11T03:08:04.829Z,979.04
2017-12-11T03:09:04.827Z,979.11
2017-12-11T03:10:04.779Z,979.17
2017-12-11T03:11:04.753Z,979.20
2017-12-11T03:12:04.806Z,979.25
2017-12-11T03:13:04.703Z,979.23
2017-12-11T03:14:04.676Z,979.23
2017-12-11T03:15:04.672Z,979.32
2017-12-11T03:16:04.661Z,979.37
2017-12-11T03:17:04.610Z,979.39
2017-12-11T03:18:04.635Z,979.39
2017-12-11T03:19:04.557Z,979.44
2017-12-11T03:20:04.527Z,979.43
2017-12-11T03:21:04.504Z,979.44
2017-12-11T03:22:04.479Z,979.51
2017-12-11T03:23:04.461Z,979.52
2017-12-11T03:24:04.430Z,979.63
2017-12-11T03:25:04.403Z,979.66
2017-12-11T03:26:04.375Z,979.70
2017-12-11T03:27:04.350Z,979.70
2017-12-11T03:28:04.338Z,979.71
2017-12-11T03:29:04.302Z,979.70
2017-12-11T03:30:04.280Z,979.76
2017-12-11T03:31:04.268Z,979.82
2017-12-11T03:32:04.229Z,979.87
2017-12-11T03:33:04.202Z,979.92
2017-12-11T03:34:04.179Z,979.95
2017-12-11T03:35:04.151Z,980.00
2017-12-11T03:36:04.130Z,980.00
2017-12-11T03:37:04.101Z,980.06
2017-12-11T03:38:04.073Z,980.11
2017-12-11T03:39:04.055Z,980.14
2017-12-11T03:40:04.024Z,980.15
2017-12-11T03:41:03.999Z,980.14
2017-12-11T03:42:03.975Z,980.15
2017-12-11T03:43:03.951Z,980.17
2017-12-11T03:44:03.923Z,980.11
2017-12-11T03:45:03.906Z,980.07
2017-12-11T03:46:03.876Z,980.05
2017-12-11T03:47:03.847Z,980.01
2017-12-11T03:48:03.842Z,979.99
2017-12-11T03:49:03.799Z,979.93
2017-12-11T03:50:03.772Z,979.94
2017-12-11T03:51:03.859Z,979.90
2017-12-11T03:52:03.722Z,979.91
2017-12-11T03:53:03.700Z,979.88
2017-12-11T03:54:03.722Z,979.89
2017-12-11T03:55:03.644Z,979.84
2017-12-11T03:56:03.627Z,979.80
2017-12-11T03:57:03.603Z,979.81
2017-12-11T03:58:03.572Z,979.77
2017-12-11T03:59:03.544Z,979.76
2017-12-11T04:00:03.522Z,979.72
2017-12-11T04:01:03.497Z,979.67
2017-12-11T04:02:03.471Z,979.65
2017-12-11T04:03:03.445Z,979.60
2017-12-11T04:04:03.424Z,979.53
2017-12-11T04:05:03.395Z,979.43
2017-12-11T04:06:03.370Z,979.36
2017-12-11T04:07:03.344Z,979.37
2017-12-11T04:08:03.325Z,979.35
2017-12-11T04:09:03.297Z,979.36
2017-12-11T04:10:03.274Z,979.37
2017-12-11T04:11:03.249Z,979.36
2017-12-11T04:12:03.223Z,979.33
2017-12-11T04:13:03.207Z,979.30
2017-12-11T04:14:03.170Z,979.29
2017-12-11T04:15:03.155Z,979.24
2017-12-11T04:16:03.133Z,979.24
2017-12-11T04:17:03.095Z,979.23
2017-12-11T04:18:03.067Z,979.28
2017-12-11T04:19:03.044Z,979.27
2017-12-11T04:20:03.020Z,979.35
2017-12-11T04:21:02.994Z,979.31
2017-12-11T04:22:02.973Z,979.41
2017-12-11T04:23:02.941Z,979.39
2017-12-11T04:24:03.072Z,979.42
2017-12-11T04:25:02.901Z,979.43
2017-12-11T04:26:02.866Z,979.44
2017-12-11T04:27:02.847Z,979.50
2017-12-11T04:28:02.825Z,979.53
2017-12-11T04:29:02.793Z,979.56
2017-12-11T04:30:02.771Z,979.51
2017-12-11T04:31:02.757Z,979.54
2017-12-11T04:32:02.716Z,979.56
2017-12-11T04:33:02.692Z,979.54
2017-12-11T04:34:02.671Z,979.51
2017-12-11T04:35:02.660Z,979.49
2017-12-11T04:36:02.619Z,979.46
2017-12-11T04:37:02.592Z,979.45
2017-12-11T04:38:02.570Z,979.44
2017-12-11T04:39:02.571Z,979.44
2017-12-11T04:40:02.527Z,979.45
2017-12-11T04:41:02.499Z,979.47
2017-12-11T04:42:02.468Z,979.51
2017-12-11T04:43:02.441Z,979.55
2017-12-11T04:44:02.425Z,979.53
2017-12-11T04:45:02.391Z,979.56
2017-12-11T04:46:02.370Z,979.63
2017-12-11T04:47:02.343Z,979.64
2017-12-11T04:48:02.318Z,979.71
2017-12-11T04:49:02.302Z,979.70
2017-12-11T04:50:02.269Z,979.74
2017-12-11T04:51:02.240Z,979.67
2017-12-11T04:52:02.270Z,979.59
2017-12-11T04:53:02.192Z,979.52
2017-12-11T04:54:02.167Z,979.48
2017-12-11T04:55:02.146Z,979.44
2017-12-11T04:56:02.117Z,979.41
2017-12-11T04:57:02.092Z,979.45
2017-12-11T04:58:02.067Z,979.46
2017-12-11T04:59:02.041Z,979.39
2017-12-11T05:00:02.015Z,979.43
2017-12-11T05:01:02.001Z,979.39
2017-12-11T05:02:01.967Z,979.40
2017-12-11T05:03:01.941Z,979.40
2017-12-11T05:04:01.916Z,979.42
2017-12-11T05:05:01.890Z,979.43
2017-12-11T05:06:01.865Z,979.45
2017-12-11T05:07:01.847Z,979.50
2017-12-11T05:08:01.814Z,979.46
2017-12-11T05:09:01.789Z,979.51
2017-12-11T05:10:01.820Z,979.50
2017-12-11T05:11:01.740Z,979.49
2017-12-11T05:12:01.723Z,979.47
2017-12-11T05:13:01.689Z,979.43
2017-12-11T05:14:01.663Z,979.43
2017-12-11T05:15:01.638Z,979.41
2017-12-11T05:16:01.613Z,979.38
2017-12-11T05:17:01.588Z,979.36
2017-12-11T05:18:01.564Z,979.39
2017-12-11T05:19:01.537Z,979.37
2017-12-11T05:20:01.512Z,979.38
2017-12-11T05:21:01.485Z,979.40
2017-12-11T05:22:01.462Z,979.37
2017-12-11T05:23:01.443Z,979.36
2017-12-11T05:24:01.421Z,979.31
2017-12-11T05:25:01.406Z,979.31
2017-12-11T05:26:01.361Z,979.34
2017-12-11T05:27:01.335Z,979.35
2017-12-11T05:28:01.316Z,979.35
2017-12-11T05:29:01.286Z,979.36
2017-12-11T05:30:01.269Z,979.32
2017-12-11T05:31:01.238Z,979.30
2017-12-11T05:32:01.211Z,979.32
2017-12-11T05:33:01.181Z,979.32
2017-12-11T05:34:01.161Z,979.30
2017-12-11T05:35:01.132Z,979.27
2017-12-11T05:36:01.106Z,979.26
2017-12-11T05:37:01.091Z,979.23
2017-12-11T05:38:01.067Z,979.23
2017-12-11T05:39:01.030Z,979.27
2017-12-11T05:40:01.005Z,979.29
2017-12-11T05:41:00.984Z,979.32
2017-12-11T05:42:00.952Z,979.38
2017-12-11T05:43:00.930Z,979.40
2017-12-11T05:44:00.906Z,979.38
2017-12-11T05:45:00.879Z,979.35
2017-12-11T05:46:00.851Z,979.36
2017-12-11T05:47:00.828Z,979.38
2017-12-11T05:48:00.800Z,979.37
2017-12-11T05:49:00.776Z,979.39
2017-12-11T05:50:00.843Z,979.41
2017-12-11T05:51:00.723Z,979.41
2017-12-11T05:52:00.701Z,979.34
2017-12-11T05:53:00.784Z,979.34
2017-12-11T05:54:00.667Z,979.26
2017-12-11T05:55:00.620Z,979.20
2017-12-11T05:56:00.598Z,979.12
2017-12-11T05:57:00.570Z,979.06
2017-12-11T05:58:00.545Z,979.09
2017-12-11T05:59:00.520Z,979.12
2017-12-11T06:00:00.491Z,979.10
2017-12-11T06:01:00.467Z,979.11
2017-12-11T06:02:00.440Z,979.02
2017-12-11T06:03:00.429Z,978.98
2017-12-11T06:04:00.445Z,978.94
2017-12-11T06:05:00.366Z,978.89
2017-12-11T06:06:00.346Z,978.89
2017-12-11T06:07:00.317Z,978.88
2017-12-11T06:08:00.287Z,978.86
2017-12-11T06:09:00.272Z,978.85
2017-12-11T06:10:00.237Z,978.83
2017-12-11T06:11:00.216Z,978.74
2017-12-11T06:12:00.185Z,978.69
2017-12-11T06:13:00.172Z,978.65
2017-12-11T06:14:00.135Z,978.65
2017-12-11T06:15:00.109Z,978.64
2017-12-11T06:16:00.085Z,978.61
2017-12-11T06:17:00.059Z,978.61
2017-12-11T06:18:00.035Z,978.60
2017-12-11T06:19:00.012Z,978.56
2017-12-11T06:20:00.006Z,978.53
2017-12-11T06:20:59.963Z,978.48
2017-12-11T06:21:59.933Z,978.48
2017-12-11T06:22:59.914Z,978.42
2017-12-11T06:23:59.885Z,978.43
2017-12-11T06:24:59.856Z,978.52
2017-12-11T06:25:59.971Z,978.57
2017-12-11T06:26:59.814Z,978.57
2017-12-11T06:27:59.786Z,978.59
2017-12-11T06:28:59.983Z,978.55
2017-12-11T06:29:59.727Z,978.52
2017-12-11T06:30:59.709Z,978.54
2017-12-11T06:31:59.681Z,978.48
2017-12-11T06:32:59.654Z,978.52
2017-12-11T06:33:59.651Z,978.50
2017-12-11T06:34:59.602Z,978.46
2017-12-11T06:35:59.637Z,978.51
2017-12-11T06:36:59.549Z,978.44
2017-12-11T06:37:59.523Z,978.40
2017-12-11T06:38:59.501Z,978.39
2017-12-11T06:39:59.471Z,978.40
2017-12-11T06:40:59.445Z,978.36
2017-12-11T06:41:59.420Z,978.39
2017-12-11T06:42:59.395Z,978.32
2017-12-11T06:43:59.370Z,978.34
2017-12-11T06:44:59.342Z,978.38
2017-12-11T06:45:59.316Z,978.42
2017-12-11T06:46:59.301Z,978.47
2017-12-11T06:47:59.268Z,978.45
2017-12-11T06:48:59.240Z,978.51
2017-12-11T06:49:59.214Z,978.52
2017-12-11T06:50:59.189Z,978.65
2017-12-11T06:51:59.163Z,978.72
2017-12-11T06:52:59.138Z,978.75
2017-12-11T06:53:59.109Z,978.83
2017-12-11T06:54:59.087Z,978.90
2017-12-11T06:55:59.058Z,978.95
2017-12-11T06:56:59.034Z,978.97
2017-12-11T06:57:59.008Z,979.02
2017-12-11T06:58:58.980Z,979.04
2017-12-11T06:59:58.958Z,979.02
2017-12-11T07:00:58.931Z,979.04
2017-12-11T07:01:58.909Z,979.04
2017-12-11T07:02:58.887Z,979.01
2017-12-11T07:03:58.849Z,979.01
2017-12-11T07:04:58.839Z,978.97
2017-12-11T07:05:58.802Z,979.00
2017-12-11T07:06:58.782Z,979.07
2017-12-11T07:07:58.769Z,979.05
2017-12-11T07:08:58.721Z,979.03
2017-12-11T07:09:58.699Z,979.07
2017-12-11T07:10:58.669Z,979.08
2017-12-11T07:11:58.648Z,979.08
2017-12-11T07:12:58.616Z,979.03
2017-12-11T07:13:58.592Z,979.03
2017-12-11T07:14:58.566Z,979.01
2017-12-11T07:15:58.553Z,978.98
2017-12-11T07:16:58.518Z,979.03
2017-12-11T07:17:58.489Z,979.03
2017-12-11T07:18:58.457Z,979.06
2017-12-11T07:19:58.435Z,979.05
2017-12-11T07:20:58.404Z,979.12
2017-12-11T07:21:58.380Z,979.18
2017-12-11T07:22:58.361Z,979.25
2017-12-11T07:23:58.326Z,979.25
2017-12-11T07:24:58.307Z,979.32
2017-12-11T07:25:58.274Z,979.40
2017-12-11T07:26:58.248Z,979.40
2017-12-11T07:27:58.232Z,979.49
2017-12-11T07:28:58.196Z,979.52
2017-12-11T07:29:58.174Z,979.61
2017-12-11T07:30:58.163Z,979.63
2017-12-11T07:31:58.119Z,979.63
2017-12-11T07:32:58.108Z,979.61
2017-12-11T07:33:58.064Z,979.53
2017-12-11T07:34:58.080Z,979.49
2017-12-11T07:35:58.023Z,979.40
2017-12-11T07:36:57.988Z,979.34
2017-12-11T07:37:57.962Z,979.26
2017-12-11T07:38:57.949Z,979.25
2017-12-11T07:39:57.920Z,979.22
2017-12-11T07:40:58.038Z,979.25
2017-12-11T07:41:57.869Z,979.27
2017-12-11T07:42:57.834Z,979.24
2017-12-11T07:43:57.863Z,979.24
2017-12-11T07:44:57.784Z,979.21
2017-12-11T07:45:57.760Z,979.16
2017-12-11T07:46:57.757Z,979.18
2017-12-11T07:47:57.711Z,979.24
2017-12-11T07:48:57.690Z,979.28
2017-12-11T07:49:57.657Z,979.29
2017-12-11T07:50:57.626Z,979.23
2017-12-11T07:51:57.642Z,979.19
2017-12-11T07:52:57.572Z,979.18
2017-12-11T07:53:57.553Z,979.22
2017-12-11T07:54:57.523Z,979.24
2017-12-11T07:55:57.496Z,979.28
2017-12-11T07:56:57.471Z,979.25
2017-12-11T07:57:57.445Z,979.24
2017-12-11T07:58:57.421Z,979.24
2017-12-11T07:59:57.392Z,979.17
2017-12-11T08:00:57.371Z,979.13
2017-12-11T08:01:57.348Z,979.16
2017-12-11T08:02:57.313Z,979.15
2017-12-11T08:03:57.292Z,979.08
2017-12-11T08:04:57.263Z,979.09
2017-12-11T08:05:57.239Z,979.02
2017-12-11T08:06:57.211Z,979.00
2017-12-11T08:07:57.188Z,978.93
2017-12-11T08:08:57.323Z,978.93
2017-12-11T08:09:57.131Z,978.92
2017-12-11T08:10:57.108Z,978.95
2017-12-11T08:11:57.188Z,978.95
2017-12-11T08:12:57.071Z,978.98
2017-12-11T08:13:57.032Z,978.99
2017-12-11T08:14:57.025Z,978.99
2017-12-11T08:15:56.981Z,978.99
2017-12-11T08:16:56.960Z,978.96
2017-12-11T08:17:56.928Z,978.93
2017-12-11T08:18:56.900Z,978.99
2017-12-11T08:19:56.875Z,978.95
2017-12-11T08:20:56.851Z,978.99
2017-12-11T08:21:56.827Z,978.95
2017-12-11T08:22:56.798Z,978.99
2017-12-11T08:23:56.774Z,979.03
2017-12-11T08:24:56.756Z,979.06
2017-12-11T08:25:56.722Z,979.08
2017-12-11T08:26:56.704Z,979.12
2017-12-11T08:27:56.671Z,979.17
2017-12-11T08:28:56.645Z,979.20
2017-12-11T08:29:56.618Z,979.21
2017-12-11T08:30:56.595Z,979.20
2017-12-11T08:31:56.585Z,979.10
2017-12-11T08:32:56.539Z,979.05
2017-12-11T08:33:56.513Z,979.02
2017-12-11T08:34:56.486Z,978.98
2017-12-11T08:35:56.459Z,979.01
2017-12-11T08:36:56.437Z,978.99
2017-12-11T08:37:56.409Z,979.01
2017-12-11T08:38:56.385Z,979.02
2017-12-11T08:39:56.360Z,978.99
2017-12-11T08:40:56.335Z,979.05
2017-12-11T08:41:56.303Z,979.08
2017-12-11T08:42:56.279Z,979.15
2017-12-11T08:43:56.253Z,979.14
2017-12-11T08:44:56.254Z,979.14
2017-12-11T08:45:56.202Z,979.10
2017-12-11T08:46:56.182Z,979.11
2017-12-11T08:47:56.167Z,979.14
2017-12-11T08:48:56.131Z,979.20
2017-12-11T08:49:56.098Z,979.12
2017-12-11T08:50:56.093Z,979.07
2017-12-11T08:51:56.044Z,979.01
2017-12-11T08:52:56.026Z,979.00
2017-12-11T08:53:55.994Z,978.98
2017-12-11T08:54:55.965Z,978.92
2017-12-11T08:55:55.946Z,978.95
2017-12-11T08:56:55.916Z,978.95
2017-12-11T08:57:55.892Z,978.89
2017-12-11T08:58:55.873Z,978.87
2017-12-11T08:59:55.840Z,978.90
2017-12-11T09:00:55.816Z,978.89
2017-12-11T09:01:55.791Z,978.93
2017-12-11T09:02:55.766Z,978.98
2017-12-11T09:03:55.735Z,979.06
2017-12-11T09:04:55.714Z,979.11
2017-12-11T09:05:55.684Z,979.06
2017-12-11T09:06:55.654Z,979.03
2017-12-11T09:07:55.649Z,979.02
2017-12-11T09:08:55.604Z,979.07
2017-12-11T09:09:55.612Z,979.03
2017-12-11T09:10:55.552Z,979.03
2017-12-11T09:11:55.528Z,979.05
2017-12-11T09:12:55.501Z,979.11
2017-12-11T09:13:55.473Z,979.10
2017-12-11T09:14:55.467Z,979.08
2017-12-11T09:15:55.422Z,979.07
2017-12-11T09:16:55.397Z,979.08
2017-12-11T09:17:55.432Z,979.05
2017-12-11T09:18:55.358Z,979.03
2017-12-11T09:19:55.321Z,979.02
2017-12-11T09:20:55.297Z,979.04
2017-12-11T09:21:55.283Z,979.08
2017-12-11T09:22:55.242Z,979.03
2017-12-11T09:23:55.233Z,978.99
2017-12-11T09:24:55.193Z,978.99
2017-12-11T09:25:55.177Z,978.96
2017-12-11T09:26:55.230Z,978.93
2017-12-11T09:27:55.122Z,978.86
2017-12-11T09:28:55.088Z,978.90
2017-12-11T09:29:55.066Z,978.92
2017-12-11T09:30:55.037Z,978.93
2017-12-11T09:31:55.010Z,978.89
2017-12-11T09:32:54.989Z,978.94
2017-12-11T09:33:54.961Z,978.94
2017-12-11T09:34:54.935Z,978.95
2017-12-11T09:35:54.910Z,978.85
2017-12-11T09:36:54.886Z,978.74
2017-12-11T09:37:54.858Z,978.72
2017-12-11T09:38:54.834Z,978.70
2017-12-11T09:39:54.812Z,978.68
2017-12-11T09:40:54.785Z,978.71
2017-12-11T09:41:54.755Z,978.71
2017-12-11T09:42:54.741Z,978.77
2017-12-11T09:43:54.713Z,978.78
2017-12-11T09:44:54.680Z,978.75
2017-12-11T09:45:54.654Z,978.73
2017-12-11T09:46:54.627Z,978.78
2017-12-11T09:47:54.603Z,978.78
2017-12-11T09:48:54.653Z,978.78
2017-12-11T09:49:54.553Z,978.73
2017-12-11T09:50:54.524Z,978.84
2017-12-11T09:51:54.516Z,978.90
2017-12-11T09:52:54.475Z,978.92
2017-12-11T09:53:54.447Z,978.80
2017-12-11T09:54:54.425Z,978.63
2017-12-11T09:55:54.397Z,978.53
2017-12-11T09:56:54.372Z,978.46
2017-12-11T09:57:54.344Z,978.53
2017-12-11T09:58:54.322Z,978.65
2017-12-11T09:59:54.299Z,978.67
2017-12-11T10:00:54.280Z,978.69
2017-12-11T10:01:54.244Z,978.65
2017-12-11T10:02:54.271Z,978.63
2017-12-11T10:03:54.195Z,978.54
2017-12-11T10:04:54.166Z,978.43
2017-12-11T10:05:54.142Z,978.38
2017-12-11T10:06:54.126Z,978.41
2017-12-11T10:07:54.093Z,978.49
2017-12-11T10:08:54.067Z,978.48
2017-12-11T10:09:54.044Z,978.45
2017-12-11T10:10:54.015Z,978.35
2017-12-11T10:11:53.987Z,978.38
2017-12-11T10:12:53.962Z,978.50
2017-12-11T10:13:53.936Z,978.67
2017-12-11T10:14:53.914Z,978.72
2017-12-11T10:15:53.892Z,978.67
2017-12-11T10:16:53.864Z,978.62
2017-12-11T10:17:53.835Z,978.58
2017-12-11T10:18:53.824Z,978.52
2017-12-11T10:19:53.781Z,978.49
2017-12-11T10:20:53.763Z,978.41
2017-12-11T10:21:53.755Z,978.35
2017-12-11T10:22:53.705Z,978.32
2017-12-11T10:23:53.679Z,978.25
2017-12-11T10:24:53.655Z,978.16
2017-12-11T10:25:53.628Z,978.13
2017-12-11T10:26:53.601Z,978.08
2017-12-11T10:27:53.681Z,977.98
2017-12-11T10:28:53.558Z,977.96
2017-12-11T10:29:53.528Z,977.92
2017-12-11T10:30:53.626Z,977.84
2017-12-11T10:31:53.472Z,977.81
2017-12-11T10:32:53.449Z,977.82
2017-12-11T10:33:53.444Z,977.88
2017-12-11T10:34:53.398Z,977.88
2017-12-11T10:35:53.381Z,977.92
2017-12-11T10:36:53.346Z,977.84
2017-12-11T10:37:53.324Z,977.71
2017-12-11T10:38:53.296Z,977.63
2017-12-11T10:39:53.269Z,977.66
2017-12-11T10:40:53.258Z,977.64
2017-12-11T10:41:53.216Z,977.59
2017-12-11T10:42:53.196Z,977.55
2017-12-11T10:43:53.169Z,977.53
2017-12-11T10:44:53.140Z,977.49
2017-12-11T10:45:53.117Z,977.42
2017-12-11T10:46:53.089Z,977.25
2017-12-11T10:47:53.074Z,977.25
2017-12-11T10:48:53.038Z,977.22
2017-12-11T10:49:53.016Z,977.29
2017-12-11T10:50:52.987Z,977.35
2017-12-11T10:51:52.965Z,977.35
2017-12-11T10:52:52.938Z,977.35
2017-12-11T10:53:52.912Z,977.29
2017-12-11T10:54:52.918Z,977.28
2017-12-11T10:55:52.864Z,977.35
2017-12-11T10:56:52.834Z,977.37
2017-12-11T10:57:52.817Z,977.30
2017-12-11T10:58:52.785Z,977.28
2017-12-11T10:59:52.756Z,977.22
2017-12-11T11:00:52.736Z,977.22
2017-12-11T11:01:52.706Z,977.17
2017-12-11T11:02:52.678Z,977.06
2017-12-11T11:03:52.740Z,977.01
2017-12-11T11:04:52.628Z,977.10
2017-12-11T11:05:52.603Z,977.15
2017-12-11T11:06:52.599Z,977.21
2017-12-11T11:07:52.553Z,977.22
2017-12-11T11:08:52.528Z,977.15
2017-12-11T11:09:52.523Z,977.01
2017-12-11T11:10:52.473Z,976.91
2017-12-11T11:11:52.447Z,976.95
2017-12-11T11:12:52.422Z,976.96
2017-12-11T11:13:52.394Z,976.89
2017-12-11T11:14:52.370Z,976.93
2017-12-11T11:15:52.351Z,976.93
2017-12-11T11:16:52.324Z,976.92
2017-12-11T11:17:52.294Z,976.98
2017-12-11T11:18:52.272Z,976.96
2017-12-11T11:19:52.240Z,976.94
2017-12-11T11:20:52.212Z,976.86
2017-12-11T11:21:52.196Z,976.77
2017-12-11T11:22:52.163Z,976.77
2017-12-11T11:23:52.142Z,976.66
2017-12-11T11:24:52.114Z,976.64
2017-12-11T11:25:52.084Z,976.63
2017-12-11T11:26:52.060Z,976.57
2017-12-11T11:27:52.034Z,976.53
2017-12-11T11:28:52.067Z,976.47
2017-12-11T11:29:51.981Z,976.32
2017-12-11T11:30:51.961Z,976.33
2017-12-11T11:31:51.934Z,976.43
2017-12-11T11:32:51.904Z,976.52
2017-12-11T11:33:51.883Z,976.48
2017-12-11T11:34:51.856Z,976.31
2017-12-11T11:35:51.827Z,976.27
2017-12-11T11:36:51.804Z,976.20
2017-12-11T11:37:51.779Z,976.21
2017-12-11T11:38:51.756Z,976.22
2017-12-11T11:39:51.853Z,976.29
2017-12-11T11:40:51.706Z,976.22
2017-12-11T11:41:51.679Z,976.13
2017-12-11T11:42:51.735Z,976.06
2017-12-11T11:43:51.625Z,975.94
2017-12-11T11:44:51.598Z,975.88
2017-12-11T11:45:51.569Z,975.93
2017-12-11T11:46:51.543Z,975.85
2017-12-11T11:47:51.518Z,975.75
2017-12-11T11:48:51.495Z,975.68
2017-12-11T11:49:51.471Z,975.67
2017-12-11T11:50:51.440Z,975.64
2017-12-11T11:51:51.415Z,975.73
2017-12-11T11:52:51.395Z,975.68
2017-12-11T11:53:51.371Z,975.66
2017-12-11T11:54:51.336Z,975.60
2017-12-11T11:55:51.311Z,975.54
2017-12-11T11:56:51.285Z,975.55
2017-12-11T11:57:51.303Z,975.50
2017-12-11T11:58:51.237Z,975.58
2017-12-11T11:59:51.208Z,975.50
2017-12-11T12:00:51.186Z,975.40
2017-12-11T12:01:51.155Z,975.34
2017-12-11T12:02:51.139Z,975.36
2017-12-11T12:03:51.105Z,975.36
2017-12-11T12:04:51.137Z,975.33
2017-12-11T12:05:51.053Z,975.24
2017-12-11T12:06:51.034Z,975.17
2017-12-11T12:07:51.046Z,975.24
2017-12-11T12:08:50.975Z,975.25
2017-12-11T12:09:50.953Z,975.26
2017-12-11T12:10:50.977Z,975.26
2017-12-11T12:11:50.895Z,975.18
2017-12-11T12:12:50.873Z,975.22
2017-12-11T12:13:50.845Z,975.15
2017-12-11T12:14:50.819Z,975.03
2017-12-11T12:15:50.793Z,975.00
2017-12-11T12:16:50.768Z,974.97
2017-12-11T12:17:50.745Z,974.94
2017-12-11T12:18:50.714Z,974.86
2017-12-11T12:19:50.692Z,974.84
2017-12-11T12:20:50.670Z,974.89
2017-12-11T12:21:50.650Z,974.93
2017-12-11T12:22:50.614Z,974.95
2017-12-11T12:23:50.584Z,974.91
2017-12-11T12:24:50.562Z,974.87
2017-12-11T12:25:50.533Z,974.90
2017-12-11T12:26:50.505Z,974.84
2017-12-11T12:27:50.498Z,974.91